Randolph, Wisconsin
Current Conditions -  °F | °C
As of 4:15 AM on Tuesday 21 Oct 2014 (Local Time) from KUNU Reporting Station
Overcast Overcast  
Wind Chill: 39°   Ceiling: 4200
Heat Index: 44°   Visibility: 10mi
Dew Point: 37°   Wind: 9mph
Humidity: 76%   Direction: 360°N
Pressure: 30.09"   Gusts: NA
Location:  43.54°N, 89°W
Report Text: KUNU 210915Z AUTO 36008KT 10SM SCT024 OVC042 07/03 A3009 RMK AO2 T00690029
Loading
Personal Weather Stations






























Interactive Weather Map
Tropical Storm Tracking
New forecast layout! Learn more

10-Day Weather Forecast

Advertisements
Track Severe Weather on mobile